createdAt,value
2019-05-01T00:00:16.062Z,99.90
2019-05-01T00:03:05.084Z,99.90
2019-05-01T00:05:35.573Z,99.90
2019-05-01T00:08:03.508Z,99.90
2019-05-01T00:10:31.789Z,99.90
2019-05-01T00:12:59.343Z,99.90
2019-05-01T00:15:30.268Z,99.90
2019-05-01T00:17:57.646Z,99.90
2019-05-01T00:20:25.012Z,99.90
2019-05-01T00:22:52.276Z,99.90
2019-05-01T00:25:19.579Z,99.90
2019-05-01T00:27:46.715Z,99.90
2019-05-01T00:30:29.314Z,99.90
2019-05-01T00:32:46.377Z,99.90
2019-05-01T00:35:13.622Z,99.90
2019-05-01T00:37:41.046Z,99.90
2019-05-01T00:40:09.030Z,99.90
2019-05-01T00:42:36.292Z,99.90
2019-05-01T00:45:03.934Z,99.90
2019-05-01T00:47:31.194Z,99.90
2019-05-01T00:49:58.454Z,99.90
2019-05-01T00:52:25.590Z,99.90
2019-05-01T00:55:12.559Z,99.90
2019-05-01T00:57:44.488Z,99.90
2019-05-01T01:00:42.538Z,99.90
2019-05-01T01:03:00.993Z,99.90
2019-05-01T01:05:28.327Z,99.90
2019-05-01T01:07:55.578Z,99.90
2019-05-01T01:10:23.123Z,99.90
2019-05-01T01:12:50.287Z,99.90
2019-05-01T01:15:17.534Z,99.90
2019-05-01T01:17:44.932Z,99.90
2019-05-01T01:20:12.738Z,99.90
2019-05-01T01:22:40.067Z,99.90
2019-05-01T01:25:08.133Z,99.90
2019-05-01T01:27:35.483Z,99.90
2019-05-01T01:30:04.622Z,99.90
2019-05-01T01:32:31.988Z,99.90
2019-05-01T01:35:00.681Z,99.90
2019-05-01T01:37:27.864Z,99.90
2019-05-01T01:39:55.664Z,99.90
2019-05-01T01:42:23.530Z,99.90
2019-05-01T01:44:57.499Z,99.90
2019-05-01T01:47:25.075Z,99.90
2019-05-01T01:49:54.093Z,99.90
2019-05-01T01:52:22.269Z,99.90
2019-05-01T01:54:49.822Z,99.90
2019-05-01T01:57:17.581Z,99.90
2019-05-01T01:59:45.248Z,99.90
2019-05-01T02:02:25.811Z,99.90
2019-05-01T02:05:14.553Z,99.90
2019-05-01T02:07:42.443Z,99.90
2019-05-01T02:10:09.938Z,99.90
2019-05-01T02:12:38.482Z,99.90
2019-05-01T02:15:06.454Z,99.90
2019-05-01T02:17:34.117Z,99.90
2019-05-01T02:20:02.061Z,99.90
2019-05-01T02:22:29.524Z,99.90
2019-05-01T02:24:56.786Z,99.90
2019-05-01T02:27:31.724Z,99.90
2019-05-01T02:30:01.605Z,99.90
2019-05-01T02:32:29.458Z,99.90
2019-05-01T02:34:58.423Z,99.90
2019-05-01T02:37:33.367Z,99.90
2019-05-01T02:40:15.820Z,99.90
2019-05-01T02:42:44.415Z,99.90
2019-05-01T02:45:11.988Z,99.90
2019-05-01T02:47:42.933Z,99.90
2019-05-01T02:50:11.235Z,99.90
2019-05-01T02:52:42.400Z,99.90
2019-05-01T02:55:20.914Z,99.90
2019-05-01T02:57:49.081Z,99.90
2019-05-01T03:00:16.864Z,99.90
2019-05-01T03:02:44.509Z,99.90
2019-05-01T03:05:12.160Z,99.90
2019-05-01T03:07:41.328Z,99.90
2019-05-01T03:10:10.037Z,99.90
2019-05-01T03:12:43.181Z,99.90
2019-05-01T03:15:11.882Z,99.90
2019-05-01T03:17:51.610Z,99.90
2019-05-01T03:20:50.666Z,99.90
2019-05-01T03:23:37.969Z,99.90
2019-05-01T03:26:06.134Z,99.90
2019-05-01T03:28:33.615Z,99.90
2019-05-01T03:31:01.250Z,99.90
2019-05-01T03:33:28.857Z,99.90
2019-05-01T03:35:56.490Z,99.90
2019-05-01T03:38:24.858Z,99.90
2019-05-01T03:40:52.511Z,99.90
2019-05-01T03:43:20.678Z,99.90
2019-05-01T03:45:48.467Z,99.90
2019-05-01T03:48:16.745Z,99.90
2019-05-01T03:50:46.782Z,99.90
2019-05-01T03:53:13.591Z,99.90
2019-05-01T03:55:41.259Z,99.90
2019-05-01T03:58:08.936Z,99.90
2019-05-01T04:00:53.477Z,99.90
2019-05-01T04:03:26.262Z,99.90
2019-05-01T04:05:54.021Z,99.90
2019-05-01T04:08:21.683Z,99.90
2019-05-01T04:10:49.466Z,99.90
2019-05-01T04:13:17.532Z,99.90
2019-05-01T04:15:45.338Z,99.90
2019-05-01T04:18:12.958Z,99.90
2019-05-01T04:20:40.953Z,99.90
2019-05-01T04:23:13.876Z,99.90
2019-05-01T04:25:41.541Z,99.90
2019-05-01T04:28:27.752Z,99.90
2019-05-01T04:31:02.021Z,99.90
2019-05-01T04:33:31.095Z,99.90
2019-05-01T04:36:04.426Z,99.90
2019-05-01T04:38:32.491Z,99.90
2019-05-01T04:41:00.067Z,99.90
2019-05-01T04:43:35.062Z,99.90
2019-05-01T04:46:03.237Z,99.90
2019-05-01T04:48:31.386Z,99.90
2019-05-01T04:50:59.044Z,99.90
2019-05-01T04:53:26.512Z,99.90
2019-05-01T04:55:53.993Z,99.90
2019-05-01T04:58:23.522Z,99.90
2019-05-01T05:00:51.003Z,99.90
2019-05-01T05:03:20.780Z,99.90
2019-05-01T05:05:48.242Z,99.90
2019-05-01T05:08:27.691Z,99.90
2019-05-01T05:10:57.497Z,99.90
2019-05-01T05:13:30.531Z,99.90
2019-05-01T05:16:14.636Z,99.90
2019-05-01T05:18:42.704Z,99.90
2019-05-01T05:21:10.910Z,99.90
2019-05-01T05:23:38.923Z,99.90
2019-05-01T05:26:06.811Z,99.90
2019-05-01T05:28:34.769Z,99.90
2019-05-01T05:31:03.491Z,99.90
2019-05-01T05:33:34.140Z,99.90
2019-05-01T05:36:04.065Z,99.90
2019-05-01T05:38:43.339Z,99.90
2019-05-01T05:41:12.620Z,99.90
2019-05-01T05:43:40.485Z,99.90
2019-05-01T05:46:08.171Z,99.90
2019-05-01T05:48:35.641Z,99.90
2019-05-01T05:51:22.449Z,99.90
2019-05-01T05:53:54.557Z,99.90
2019-05-01T05:56:31.889Z,99.90
2019-05-01T05:59:07.766Z,99.90
2019-05-01T06:01:49.054Z,99.90
2019-05-01T06:04:44.137Z,99.90
2019-05-01T06:07:25.375Z,99.90
2019-05-01T06:10:05.567Z,99.90
2019-05-01T06:12:50.148Z,99.90
2019-05-01T06:15:41.187Z,99.90
2019-05-01T06:18:14.028Z,99.90
2019-05-01T06:20:57.212Z,99.90
2019-05-01T06:23:52.777Z,99.90
2019-05-01T06:26:32.015Z,99.90
2019-05-01T06:29:01.977Z,99.90
2019-05-01T06:31:30.361Z,99.90
2019-05-01T06:33:58.315Z,99.90
2019-05-01T06:36:25.851Z,99.90
2019-05-01T06:38:54.518Z,99.90
2019-05-01T06:41:28.616Z,99.90
2019-05-01T06:44:04.114Z,99.90
2019-05-01T06:46:48.400Z,99.90
2019-05-01T06:49:48.510Z,99.90
2019-05-01T06:52:20.500Z,99.90
2019-05-01T06:54:52.091Z,99.90
2019-05-01T06:57:18.429Z,99.90
2019-05-01T06:59:46.906Z,99.90
2019-05-01T07:02:16.050Z,99.90
2019-05-01T07:04:47.381Z,99.90
2019-05-01T07:07:25.051Z,99.90
2019-05-01T07:09:51.471Z,99.90
2019-05-01T07:12:23.796Z,99.90
2019-05-01T07:15:04.265Z,99.90
2019-05-01T07:17:31.819Z,99.90
2019-05-01T07:20:34.985Z,99.90
2019-05-01T07:23:03.062Z,99.90
2019-05-01T07:25:30.452Z,99.90
2019-05-01T07:28:03.233Z,99.90
2019-05-01T07:30:56.750Z,99.90
2019-05-01T07:33:24.740Z,99.90
2019-05-01T07:36:00.123Z,99.90
2019-05-01T07:38:28.130Z,99.90
2019-05-01T07:40:58.909Z,99.90
2019-05-01T07:44:03.164Z,99.90
2019-05-01T07:46:36.264Z,99.90
2019-05-01T07:49:04.578Z,99.90
2019-05-01T07:51:32.232Z,99.90
2019-05-01T07:54:04.056Z,99.90
2019-05-01T07:56:30.209Z,99.90
2019-05-01T07:58:58.204Z,99.90
2019-05-01T08:02:03.589Z,99.90
2019-05-01T08:04:38.030Z,99.90
2019-05-01T08:07:00.210Z,99.90
2019-05-01T08:09:27.582Z,99.90
2019-05-01T08:11:54.946Z,99.90
2019-05-01T08:14:22.119Z,99.90
2019-05-01T08:16:49.393Z,99.90
2019-05-01T08:19:39.473Z,99.90
2019-05-01T08:22:13.589Z,99.90
2019-05-01T08:24:41.053Z,99.90
2019-05-01T08:27:15.707Z,99.90
2019-05-01T08:30:17.477Z,99.90
2019-05-01T08:32:59.307Z,99.90
2019-05-01T08:35:31.773Z,99.90
2019-05-01T08:37:58.480Z,99.90
2019-05-01T08:40:27.745Z,99.90
2019-05-01T08:42:55.120Z,99.90
2019-05-01T08:45:35.913Z,99.90
2019-05-01T08:48:15.298Z,99.90
2019-05-01T08:50:42.592Z,99.90
2019-05-01T08:53:09.763Z,99.90
2019-05-01T08:55:39.954Z,99.90
2019-05-01T08:58:08.855Z,99.90
2019-05-01T09:00:39.002Z,99.90
2019-05-01T09:03:08.508Z,99.90
2019-05-01T09:05:34.207Z,99.90
2019-05-01T09:08:01.682Z,99.90
2019-05-01T09:10:29.081Z,99.90
2019-05-01T09:12:56.257Z,99.90
2019-05-01T09:15:23.509Z,99.90
2019-05-01T09:17:50.783Z,99.90
2019-05-01T09:20:18.169Z,99.90
2019-05-01T09:22:46.691Z,99.90
2019-05-01T09:25:17.063Z,99.90
2019-05-01T09:28:05.691Z,99.90
2019-05-01T09:30:48.952Z,99.90
2019-05-01T09:33:17.442Z,99.90
2019-05-01T09:35:45.666Z,99.90
2019-05-01T09:38:14.098Z,99.90
2019-05-01T09:40:42.481Z,99.90
2019-05-01T09:43:09.928Z,99.90
2019-05-01T09:45:37.377Z,99.90
2019-05-01T09:48:05.790Z,99.90
2019-05-01T09:50:35.337Z,99.90
2019-05-01T09:53:19.581Z,99.90
2019-05-01T09:55:53.524Z,99.90
2019-05-01T09:58:20.998Z,99.90
2019-05-01T10:00:52.649Z,99.90
2019-05-01T10:03:18.577Z,99.90
2019-05-01T10:05:45.917Z,99.90
2019-05-01T10:08:13.301Z,99.90
2019-05-01T10:10:40.681Z,99.90
2019-05-01T10:13:11.298Z,99.90
2019-05-01T10:15:38.681Z,99.90
2019-05-01T10:18:06.383Z,99.90
2019-05-01T10:20:33.935Z,98.70
2019-05-01T10:23:01.294Z,97.70
2019-05-01T10:25:28.481Z,97.20
2019-05-01T10:28:01.720Z,97.60
2019-05-01T10:30:43.721Z,96.80
2019-05-01T10:33:17.845Z,95.60
2019-05-01T10:36:18.865Z,94.50
2019-05-01T10:38:45.059Z,92.40
2019-05-01T10:41:12.423Z,87.30
2019-05-01T10:43:39.950Z,81.60
2019-05-01T10:46:07.505Z,77.20
2019-05-01T10:48:35.074Z,73.70
2019-05-01T10:51:02.473Z,67.70
2019-05-01T10:53:29.688Z,66.90
2019-05-01T10:55:57.053Z,63.30
2019-05-01T10:58:24.518Z,61.30
2019-05-01T11:00:57.503Z,59.60
2019-05-01T11:03:25.185Z,54.40
2019-05-01T11:05:56.125Z,49.50
2019-05-01T11:08:21.885Z,49.10
2019-05-01T11:10:49.112Z,47.40
2019-05-01T11:13:16.409Z,45.60
2019-05-01T11:15:43.968Z,44.70
2019-05-01T11:18:11.322Z,43.60
2019-05-01T11:20:38.554Z,42.10
2019-05-01T11:23:05.926Z,41.50
2019-05-01T11:25:33.838Z,41.30
2019-05-01T11:28:01.201Z,40.90
2019-05-01T11:30:28.394Z,39.80
2019-05-01T11:33:07.928Z,40.50
2019-05-01T11:35:53.734Z,40.60
2019-05-01T11:38:38.695Z,41.30
2019-05-01T11:41:10.499Z,42.40
2019-05-01T11:43:37.940Z,41.10
2019-05-01T11:46:05.394Z,39.70
2019-05-01T11:48:32.882Z,40.50
2019-05-01T11:51:00.231Z,40.10
2019-05-01T11:53:30.366Z,40.10
2019-05-01T11:55:57.665Z,38.20
2019-05-01T11:58:24.951Z,39.40
2019-05-01T12:00:54.127Z,39.60
2019-05-01T12:03:21.428Z,40.80
2019-05-01T12:05:48.762Z,41.60
2019-05-01T12:08:16.221Z,41.90
2019-05-01T12:10:44.041Z,41.20
2019-05-01T12:13:11.305Z,40.00
2019-05-01T12:15:38.659Z,39.00
2019-05-01T12:18:05.921Z,39.70
2019-05-01T12:20:33.172Z,38.50
2019-05-01T12:23:00.360Z,38.60
2019-05-01T12:25:28.619Z,41.10
2019-05-01T12:27:56.024Z,39.10
2019-05-01T12:30:23.394Z,40.80
2019-05-01T12:32:50.832Z,39.90
2019-05-01T12:35:18.105Z,39.30
2019-05-01T12:37:45.565Z,38.80
2019-05-01T12:40:17.768Z,39.60
2019-05-01T12:42:45.322Z,36.40
2019-05-01T12:45:14.318Z,38.00
2019-05-01T12:47:48.008Z,40.50
2019-05-01T12:50:16.274Z,40.40
2019-05-01T12:53:02.221Z,41.90
2019-05-01T12:55:49.275Z,41.10
2019-05-01T12:58:16.559Z,42.20
2019-05-01T13:00:49.173Z,40.80
2019-05-01T13:03:16.591Z,42.00
2019-05-01T13:05:44.076Z,40.30
2019-05-01T13:08:11.540Z,41.70
2019-05-01T13:10:38.789Z,43.70
2019-05-01T13:13:06.164Z,41.00
2019-05-01T13:15:33.653Z,42.10
2019-05-01T13:18:01.188Z,40.70
2019-05-01T13:20:28.489Z,43.00
2019-05-01T13:22:55.670Z,41.70
2019-05-01T13:25:32.949Z,42.00
2019-05-01T13:28:16.349Z,39.50
2019-05-01T13:30:54.463Z,39.80
2019-05-01T13:33:21.910Z,39.90
2019-05-01T13:35:49.179Z,41.20
2019-05-01T13:38:16.629Z,40.20
2019-05-01T13:40:43.885Z,41.30
2019-05-01T13:43:11.136Z,42.20
2019-05-01T13:45:38.301Z,43.90
2019-05-01T13:48:11.359Z,40.30
2019-05-01T13:50:38.644Z,42.20
2019-05-01T13:53:06.256Z,45.40
2019-05-01T13:55:33.685Z,43.80
2019-05-01T13:58:02.008Z,42.10
2019-05-01T14:00:29.606Z,43.10
2019-05-01T14:02:57.042Z,45.30
2019-05-01T14:05:24.423Z,43.20
2019-05-01T14:07:51.726Z,42.20
2019-05-01T14:10:19.481Z,45.90
2019-05-01T14:12:46.915Z,43.30
2019-05-01T14:15:14.393Z,45.90
2019-05-01T14:17:41.680Z,42.70
2019-05-01T14:20:32.972Z,43.30
2019-05-01T14:23:05.161Z,46.70
2019-05-01T14:25:51.416Z,43.90
2019-05-01T14:28:18.800Z,45.30
2019-05-01T14:30:45.962Z,45.30
2019-05-01T14:33:13.177Z,44.30
2019-05-01T14:35:42.887Z,43.50
2019-05-01T14:38:10.272Z,43.60
2019-05-01T14:40:40.045Z,46.50
2019-05-01T14:43:07.435Z,43.30
2019-05-01T14:45:36.713Z,43.90
2019-05-01T14:48:04.258Z,44.50
2019-05-01T14:50:31.633Z,43.60
2019-05-01T14:52:58.967Z,44.80
2019-05-01T14:55:26.450Z,47.60
2019-05-01T14:57:54.041Z,44.90
2019-05-01T15:00:21.728Z,44.30
2019-05-01T15:02:49.105Z,44.30
2019-05-01T15:05:16.614Z,44.20
2019-05-01T15:07:44.290Z,46.00
2019-05-01T15:10:12.109Z,45.80
2019-05-01T15:12:48.829Z,46.20
2019-05-01T15:15:36.054Z,46.00
2019-05-01T15:18:10.506Z,46.60
2019-05-01T15:20:37.911Z,50.20
2019-05-01T15:23:05.241Z,46.40
2019-05-01T15:25:35.570Z,47.70
2019-05-01T15:28:03.045Z,47.20
2019-05-01T15:30:30.560Z,46.90
2019-05-01T15:32:59.650Z,45.40
2019-05-01T15:35:28.449Z,45.50
2019-05-01T15:37:57.155Z,44.30
2019-05-01T15:40:30.957Z,47.30
2019-05-01T15:43:09.073Z,46.30
2019-05-01T15:45:36.248Z,47.20
2019-05-01T15:48:08.856Z,43.40
2019-05-01T15:50:36.551Z,44.10
2019-05-01T15:53:06.863Z,46.30
2019-05-01T15:55:37.047Z,44.10
2019-05-01T15:58:05.865Z,45.10
2019-05-01T16:00:42.303Z,44.70
2019-05-01T16:03:10.897Z,47.70
2019-05-01T16:05:41.610Z,43.60
2019-05-01T16:08:12.903Z,45.80
2019-05-01T16:10:54.086Z,45.40
2019-05-01T16:13:24.214Z,46.10
2019-05-01T16:15:59.811Z,45.20
2019-05-01T16:18:29.710Z,44.50
2019-05-01T16:20:57.451Z,45.20
2019-05-01T16:23:32.114Z,44.50
2019-05-01T16:26:14.981Z,46.30
2019-05-01T16:28:46.672Z,47.10
2019-05-01T16:31:13.914Z,46.10
2019-05-01T16:33:51.554Z,47.70
2019-05-01T16:36:32.779Z,49.00
2019-05-01T16:39:23.060Z,46.90
2019-05-01T16:41:53.159Z,49.50
2019-05-01T16:44:23.492Z,46.20
2019-05-01T16:46:52.547Z,48.70
2019-05-01T16:49:19.934Z,48.60
2019-05-01T16:51:47.988Z,49.40
2019-05-01T16:54:15.258Z,49.10
2019-05-01T16:56:43.042Z,48.20
2019-05-01T16:59:10.431Z,51.10
2019-05-01T17:01:57.452Z,51.10
2019-05-01T17:04:43.318Z,48.00
2019-05-01T17:07:24.446Z,47.40
2019-05-01T17:10:10.199Z,49.20
2019-05-01T17:12:45.391Z,50.50
2019-05-01T17:15:14.954Z,49.80
2019-05-01T17:17:50.843Z,49.30
2019-05-01T17:20:18.626Z,52.90
2019-05-01T17:22:46.323Z,49.60
2019-05-01T17:25:15.379Z,51.00
2019-05-01T17:27:42.895Z,49.20
2019-05-01T17:30:16.259Z,49.90
2019-05-01T17:32:44.280Z,51.20
2019-05-01T17:35:13.615Z,50.20
2019-05-01T17:37:43.985Z,53.70
2019-05-01T17:40:11.936Z,53.90
2019-05-01T17:42:39.511Z,51.70
2019-05-01T17:45:07.527Z,51.10
2019-05-01T17:47:35.873Z,50.40
2019-05-01T17:50:07.472Z,51.40
2019-05-01T17:52:35.433Z,51.20
2019-05-01T17:55:05.317Z,52.90
2019-05-01T17:57:33.909Z,52.10
2019-05-01T18:00:24.300Z,53.10
2019-05-01T18:02:59.169Z,53.40
2019-05-01T18:05:41.795Z,53.80
2019-05-01T18:08:09.773Z,51.40
2019-05-01T18:10:39.850Z,52.50
2019-05-01T18:13:08.924Z,53.30
2019-05-01T18:15:37.715Z,52.80
2019-05-01T18:18:05.360Z,54.50
2019-05-01T18:20:33.356Z,53.60
2019-05-01T18:23:42.854Z,53.80
2019-05-01T18:26:38.787Z,53.90
2019-05-01T18:29:13.672Z,54.90
2019-05-01T18:31:43.933Z,55.50
2019-05-01T18:34:12.021Z,56.80
2019-05-01T18:36:47.061Z,56.50
2019-05-01T18:39:25.812Z,57.00
2019-05-01T18:41:58.238Z,56.60
2019-05-01T18:44:26.036Z,57.30
2019-05-01T18:46:57.887Z,59.40
2019-05-01T18:49:35.177Z,56.10
2019-05-01T18:52:05.396Z,55.30
2019-05-01T18:54:35.019Z,56.10
2019-05-01T18:57:02.883Z,58.80
2019-05-01T18:59:31.062Z,56.10
2019-05-01T19:02:04.394Z,56.40
2019-05-01T19:04:32.866Z,57.00
2019-05-01T19:07:02.454Z,58.20
2019-05-01T19:09:32.739Z,57.90
2019-05-01T19:12:01.218Z,58.60
2019-05-01T19:14:32.188Z,58.60
2019-05-01T19:17:00.280Z,58.40
2019-05-01T19:19:28.063Z,58.90
2019-05-01T19:21:56.143Z,59.30
2019-05-01T19:24:26.238Z,60.80
2019-05-01T19:26:58.538Z,61.10
2019-05-01T19:29:33.858Z,62.00
2019-05-01T19:32:03.414Z,62.30
2019-05-01T19:34:31.606Z,62.90
2019-05-01T19:36:59.537Z,63.30
2019-05-01T19:39:27.417Z,64.10
2019-05-01T19:41:55.087Z,65.40
2019-05-01T19:44:23.219Z,66.60
2019-05-01T19:46:51.164Z,68.90
2019-05-01T19:49:19.113Z,70.60
2019-05-01T19:51:46.879Z,70.90
2019-05-01T19:54:14.824Z,76.50
2019-05-01T19:56:42.619Z,78.50
2019-05-01T19:59:10.392Z,80.40
2019-05-01T20:01:43.730Z,84.00
2019-05-01T20:04:08.462Z,88.00
2019-05-01T20:06:46.812Z,92.00
2019-05-01T20:09:17.393Z,94.00
2019-05-01T20:11:45.984Z,98.00
2019-05-01T20:14:14.103Z,99.90
2019-05-01T20:16:41.970Z,99.90
2019-05-01T20:19:12.000Z,98.90
2019-05-01T20:21:41.762Z,99.90
2019-05-01T20:24:12.391Z,99.90
2019-05-01T20:26:40.123Z,99.90
2019-05-01T20:29:10.026Z,99.90
2019-05-01T20:31:37.837Z,99.90
2019-05-01T20:34:05.686Z,99.90
2019-05-01T20:36:34.774Z,99.90
2019-05-01T20:39:05.503Z,99.90
2019-05-01T20:41:33.731Z,99.90
2019-05-01T20:44:05.151Z,99.90
2019-05-01T20:46:33.031Z,99.90
2019-05-01T20:49:06.597Z,99.90
2019-05-01T20:51:34.599Z,99.90
2019-05-01T20:54:07.169Z,99.90
2019-05-01T20:56:40.371Z,99.90
2019-05-01T20:59:07.936Z,99.90
2019-05-01T21:01:35.703Z,99.90
2019-05-01T21:04:17.573Z,99.90
2019-05-01T21:06:46.793Z,99.90
2019-05-01T21:09:19.996Z,99.90
2019-05-01T21:11:50.481Z,99.90
2019-05-01T21:14:22.688Z,99.90
2019-05-01T21:16:46.984Z,99.90
2019-05-01T21:19:14.432Z,99.90
2019-05-01T21:21:43.487Z,99.90
2019-05-01T21:24:11.250Z,99.90
2019-05-01T21:26:38.509Z,99.90
2019-05-01T21:29:05.917Z,99.90
2019-05-01T21:31:34.140Z,99.90
2019-05-01T21:34:01.618Z,99.90
2019-05-01T21:36:28.770Z,99.90
2019-05-01T21:38:56.109Z,99.90
2019-05-01T21:41:23.287Z,99.90
2019-05-01T21:43:50.463Z,99.90
2019-05-01T21:46:17.719Z,99.90
2019-05-01T21:48:45.029Z,99.90
2019-05-01T21:51:12.615Z,99.90
2019-05-01T21:53:42.720Z,99.90
2019-05-01T21:56:09.090Z,99.90
2019-05-01T21:58:36.251Z,99.90
2019-05-01T22:01:06.079Z,99.90
2019-05-01T22:03:33.535Z,99.90
2019-05-01T22:06:00.897Z,99.90
2019-05-01T22:08:28.346Z,99.90
2019-05-01T22:10:57.595Z,99.90
2019-05-01T22:13:25.546Z,99.90
2019-05-01T22:15:58.142Z,99.90
2019-05-01T22:18:45.441Z,99.90
2019-05-01T22:21:19.558Z,99.90
2019-05-01T22:24:16.685Z,99.90
2019-05-01T22:26:48.252Z,99.90
2019-05-01T22:29:17.418Z,99.90
2019-05-01T22:32:10.473Z,99.90
2019-05-01T22:34:50.985Z,99.90
2019-05-01T22:37:18.344Z,99.90
2019-05-01T22:39:49.365Z,99.90
2019-05-01T22:42:17.093Z,99.90
2019-05-01T22:44:44.525Z,99.90
2019-05-01T22:47:14.945Z,99.90
2019-05-01T22:49:41.061Z,99.90
2019-05-01T22:52:08.444Z,99.90
2019-05-01T22:54:35.693Z,99.90
2019-05-01T22:57:03.240Z,99.90
2019-05-01T22:59:30.594Z,99.90
2019-05-01T23:02:04.714Z,99.90
2019-05-01T23:04:32.001Z,99.90
2019-05-01T23:06:59.245Z,99.90
2019-05-01T23:09:32.820Z,99.90
2019-05-01T23:12:00.428Z,99.90
2019-05-01T23:14:28.702Z,99.90
2019-05-01T23:17:14.977Z,99.90
2019-05-01T23:19:42.347Z,99.90
2019-05-01T23:22:09.616Z,99.90
2019-05-01T23:24:36.874Z,99.90
2019-05-01T23:27:04.364Z,99.90
2019-05-01T23:29:31.549Z,99.90
2019-05-01T23:31:58.816Z,99.90
2019-05-01T23:34:27.784Z,99.90
2019-05-01T23:36:55.046Z,99.90
2019-05-01T23:39:22.693Z,99.90
2019-05-01T23:41:50.156Z,99.90
2019-05-01T23:44:17.428Z,99.90
2019-05-01T23:46:44.841Z,99.90
2019-05-01T23:49:11.978Z,99.90
2019-05-01T23:51:39.132Z,99.90
2019-05-01T23:54:07.583Z,99.90
2019-05-01T23:56:36.259Z,99.90
2019-05-01T23:59:04.125Z,99.90
